Flight Track Log - Related Links

Times and Time Zones

All times are in EDT time to prevent confusion due to time zone crossing. See the JBU51 flight status page for this flight to view local times or setup timezone preferences in your user account.

Time Position Orientation Groundspeed Altitude Reporting Facility
EDT Latitude Longitude Course Direction KTS MPH feet Rate Location/Type
Sun 10:57:36 AM 44.4156 -73.1375 196° South 190 219 3,000  Level Boston Center
Sun 10:58:36 AM 44.3528 -73.1631 196° South 219 252 5,800 3,100 Climbing Boston Center
Sun 10:59:00 AM 44.1444 -73.2709 195° South  Level FlightAware Approximate
Sun 10:59:36 AM 44.2797 -73.1969 198° South 257 296 9,200  Level Boston Center
Sun 11:00:00 AM 44.0634 -73.3011 194° South  Level FlightAware Approximate
Sun 11:00:36 AM 44.2064 -73.2539 209° Southwest 285 328 11,400  Level Boston Center
Sun 11:01:00 AM 43.9818 -73.3283 194° South  Level FlightAware Approximate
Sun 11:01:36 AM 44.1289 -73.3106 208° Southwest 338 389 14,400  Level Boston Center
Sun 11:02:00 AM 43.9004 -73.3565 196° South  Level FlightAware Approximate
Sun 11:02:36 AM 44.0408 -73.3758 208° Southwest 359 413 17,000  Level Boston Center
Sun 11:03:36 AM 43.9444 -73.4464 208° Southwest 378 435 18,900 2,000 Climbing Boston Center
Sun 11:04:36 AM 43.8478 -73.5167 208° Southwest 395 455 21,000 2,150 Climbing Boston Center
Sun 11:05:36 AM 43.7472 -73.5925 209° Southwest 407 468 23,200 1,850 Climbing Boston Center
Sun 11:06:36 AM 43.6317 -73.6736 207° Southwest 418 481 24,700 1,450 Climbing Boston Center
Sun 11:07:36 AM 43.5225 -73.7514 207° Southwest 430 495 26,100 1,600 Climbing Boston Center
Sun 11:08:36 AM 43.4111 -73.8347 209° Southwest 442 509 27,900 900 Climbing Boston Center
Sun 11:09:36 AM 43.3081 -73.9094 208° Southwest 453 521 27,900 50 Level Boston Center
Sun 11:10:36 AM 43.1806 -73.9264 186° South 460 529 28,000 50 Climbing Boston Center
Sun 11:11:36 AM 43.0472 -73.9175 177° South 466 536 28,000  Level Boston Center
Sun 11:12:36 AM 42.9161 -73.9086 177° South 471 542 28,000  Level Boston Center
Sun 11:13:36 AM 42.7828 -73.8997 177° South 477 549 28,000  Level Boston Center
Sun 11:14:36 AM 42.6494 -73.8911 177° South 483 556 28,000  Level Boston Center
Sun 11:15:36 AM 42.5058 -73.8819 177° South 475 547 28,000  Level Boston Center
Sun 11:16:36 AM 42.3747 -73.8733 177° South 475 547 28,000  Level Boston Center
Sun 11:17:36 AM 42.2394 -73.8619 176° South 475 547 28,000  Level Boston Center
Sun 11:18:36 AM 42.1081 -73.8561 178° South 475 547 28,000  Level Boston Center
Sun 11:19:36 AM 41.9750 -73.8447 176° South 475 547 28,000 -908 Level Boston Center
Sun 11:21:41 AM 41.7208 -73.8614 183° South 472 543 25,200 -1,492 Descending New York Center
Sun 11:22:41 AM 41.6131 -73.9258 204° Southwest 439 505 23,400 -1,785 Descending New York Center
Sun 11:23:42 AM 41.5008 -73.9953 205° Southwest 426 490 21,600 -1,686 Descending New York Center
Sun 11:24:42 AM 41.3992 -74.0594 205° Southwest 421 484 20,000 -793 Descending New York Center
Sun 11:25:43 AM 41.3053 -74.1322 210° Southwest 413 475 20,000  Level New York Center
Sun 11:26:42 AM 41.1967 -74.1433 184° South 389 448 20,000 -101 Level New York Center
Sun 11:27:42 AM 41.0989 -74.1411 179° South 372 428 19,800 -508 Descending New York Center
Sun 11:28:40 AM 41.0031 -74.1392 179° South 358 412 19,000 -623 Descending New York Center
Sun 11:28:59 AM 40.9667 -74.1333 173° South 340 391 19,000  Level New York TRACON
Sun 11:29:59 AM 40.8833 -74.1000 163° South 342 394 19,000  Level New York TRACON
Sun 11:31:41 AM 40.7347 -74.0575 168° South 345 397 19,000 -200 Level New York Center
Sun 11:31:59 AM 40.7000 -74.0500 171° South 342 394 18,600 -1,385 Descending New York TRACON
Sun 11:32:59 AM 40.6167 -74.0167 163° South 344 396 17,200 -1,500 Descending New York TRACON
Sun 11:34:43 AM 40.4881 -73.9336 154° Southeast 290 334 14,500 -1,750 Descending New York Center
Sun 11:34:59 AM 40.4667 -73.8833 119° Southeast 321 369 13,700 -1,895 Descending New York TRACON
Sun 11:35:59 AM 40.4333 -73.7833 114° Southeast 309 356 12,100 -1,650 Descending New York TRACON
Sun 11:36:59 AM 40.3833 -73.6833 123° Southeast 299 344 10,400 -1,550 Descending New York TRACON
Sun 11:37:59 AM 40.3500 -73.6000 118° Southeast 283 326 9,000 -1,485 Descending New York TRACON
Sun 11:38:40 AM 40.3292 -73.5397 114° Southeast 286 329 7,900 -1,663 Descending New York Center
Sun 11:39:40 AM 40.3600 -73.4675 61° Northeast 232 267 6,200 -1,747 Descending New York Center
Sun 11:39:59 AM 40.3833 -73.4667 North 272 313 5,600 -1,747 Descending New York TRACON
Sun 11:40:59 AM 40.4667 -73.5000 343° North 266 306 3,900 -1,300 Descending New York TRACON
Sun 11:41:59 AM 40.5333 -73.5167 349° North 262 302 3,000 -450 Descending New York TRACON
Sun 11:42:59 AM 40.6000 -73.5333 349° North 263 303 3,000  Level New York TRACON

Login

Don't have an account? Register now (free) for customized features, flight alerts, and more!